sensor_id;sensor_type;location;lat;lon;timestamp;P1;durP1;ratioP1;P2;durP2;ratioP2
30505;SDS011;17292;51.600;4.994;2023-05-02T00:00:09;9.50;;;3.50;;
30505;SDS011;17292;51.600;4.994;2023-05-02T00:02:36;6.65;;;3.28;;
30505;SDS011;17292;51.600;4.994;2023-05-02T00:05:02;6.35;;;2.90;;
30505;SDS011;17292;51.600;4.994;2023-05-02T00:07:29;10.50;;;2.88;;
30505;SDS011;17292;51.600;4.994;2023-05-02T00:09:55;6.10;;;2.70;;
30505;SDS011;17292;51.600;4.994;2023-05-02T00:12:21;4.10;;;2.67;;
30505;SDS011;17292;51.600;4.994;2023-05-02T00:14:47;4.95;;;3.08;;
30505;SDS011;17292;51.600;4.994;2023-05-02T00:17:17;6.20;;;2.95;;
30505;SDS011;17292;51.600;4.994;2023-05-02T00:19:44;12.13;;;3.17;;
30505;SDS011;17292;51.600;4.994;2023-05-02T00:22:10;4.25;;;2.58;;
30505;SDS011;17292;51.600;4.994;2023-05-02T00:24:36;6.90;;;3.13;;
30505;SDS011;17292;51.600;4.994;2023-05-02T00:27:02;6.15;;;3.10;;
30505;SDS011;17292;51.600;4.994;2023-05-02T00:29:29;7.53;;;3.05;;
30505;SDS011;17292;51.600;4.994;2023-05-02T00:31:55;11.27;;;3.40;;
30505;SDS011;17292;51.600;4.994;2023-05-02T00:34:22;5.63;;;2.70;;
30505;SDS011;17292;51.600;4.994;2023-05-02T00:36:48;6.65;;;2.72;;
30505;SDS011;17292;51.600;4.994;2023-05-02T00:39:15;7.88;;;2.83;;
30505;SDS011;17292;51.600;4.994;2023-05-02T00:41:41;8.68;;;3.30;;
30505;SDS011;17292;51.600;4.994;2023-05-02T00:44:07;5.97;;;3.13;;
30505;SDS011;17292;51.600;4.994;2023-05-02T00:46:33;4.63;;;2.30;;
30505;SDS011;17292;51.600;4.994;2023-05-02T00:49:00;7.82;;;3.15;;
30505;SDS011;17292;51.600;4.994;2023-05-02T00:51:26;10.70;;;2.80;;
30505;SDS011;17292;51.600;4.994;2023-05-02T00:53:53;5.57;;;2.72;;
30505;SDS011;17292;51.600;4.994;2023-05-02T00:56:19;7.45;;;3.05;;
30505;SDS011;17292;51.600;4.994;2023-05-02T00:58:45;8.00;;;2.80;;
30505;SDS011;17292;51.600;4.994;2023-05-02T01:06:52;9.30;;;3.13;;
30505;SDS011;17292;51.600;4.994;2023-05-02T01:11:48;5.07;;;2.60;;
30505;SDS011;17292;51.600;4.994;2023-05-02T01:14:16;4.93;;;2.70;;
30505;SDS011;17292;51.600;4.994;2023-05-02T01:16:44;3.83;;;2.30;;
30505;SDS011;17292;51.600;4.994;2023-05-02T01:19:12;5.57;;;3.00;;
30505;SDS011;17292;51.600;4.994;2023-05-02T01:21:40;7.90;;;2.78;;
30505;SDS011;17292;51.600;4.994;2023-05-02T01:24:11;8.85;;;2.65;;
30505;SDS011;17292;51.600;4.994;2023-05-02T01:29:11;8.77;;;3.10;;
30505;SDS011;17292;51.600;4.994;2023-05-02T01:31:42;5.10;;;2.70;;
30505;SDS011;17292;51.600;4.994;2023-05-02T01:34:09;5.15;;;2.47;;
30505;SDS011;17292;51.600;4.994;2023-05-02T01:36:37;6.47;;;2.70;;
30505;SDS011;17292;51.600;4.994;2023-05-02T01:39:04;4.97;;;2.47;;
30505;SDS011;17292;51.600;4.994;2023-05-02T01:41:32;5.32;;;2.70;;
30505;SDS011;17292;51.600;4.994;2023-05-02T01:43:59;4.35;;;2.42;;
30505;SDS011;17292;51.600;4.994;2023-05-02T01:46:28;6.03;;;2.47;;
30505;SDS011;17292;51.600;4.994;2023-05-02T01:48:56;6.32;;;2.85;;
30505;SDS011;17292;51.600;4.994;2023-05-02T01:51:25;3.97;;;2.42;;
30505;SDS011;17292;51.600;4.994;2023-05-02T01:53:56;5.97;;;2.35;;
30505;SDS011;17292;51.600;4.994;2023-05-02T01:56:23;4.70;;;2.70;;
30505;SDS011;17292;51.600;4.994;2023-05-02T01:58:49;3.22;;;2.40;;
30505;SDS011;17292;51.600;4.994;2023-05-02T02:01:17;3.45;;;2.33;;
30505;SDS011;17292;51.600;4.994;2023-05-02T02:03:44;5.38;;;2.63;;
30505;SDS011;17292;51.600;4.994;2023-05-02T02:06:11;4.97;;;2.38;;
30505;SDS011;17292;51.600;4.994;2023-05-02T02:08:38;5.40;;;2.70;;
30505;SDS011;17292;51.600;4.994;2023-05-02T02:11:06;7.18;;;2.78;;
30505;SDS011;17292;51.600;4.994;2023-05-02T02:13:34;3.35;;;2.60;;
30505;SDS011;17292;51.600;4.994;2023-05-02T02:16:02;8.13;;;2.75;;
30505;SDS011;17292;51.600;4.994;2023-05-02T02:18:31;4.55;;;2.60;;
30505;SDS011;17292;51.600;4.994;2023-05-02T02:21:00;4.22;;;2.30;;
30505;SDS011;17292;51.600;4.994;2023-05-02T02:23:27;6.45;;;2.72;;
30505;SDS011;17292;51.600;4.994;2023-05-02T02:25:55;3.83;;;2.45;;
30505;SDS011;17292;51.600;4.994;2023-05-02T02:28:21;3.65;;;1.98;;
30505;SDS011;17292;51.600;4.994;2023-05-02T02:30:48;3.10;;;2.33;;
30505;SDS011;17292;51.600;4.994;2023-05-02T02:33:14;6.28;;;2.35;;
30505;SDS011;17292;51.600;4.994;2023-05-02T02:35:41;5.22;;;2.40;;
30505;SDS011;17292;51.600;4.994;2023-05-02T02:38:19;5.15;;;2.78;;
30505;SDS011;17292;51.600;4.994;2023-05-02T02:40:56;5.30;;;2.42;;
30505;SDS011;17292;51.600;4.994;2023-05-02T02:43:31;4.85;;;2.97;;
30505;SDS011;17292;51.600;4.994;2023-05-02T02:46:16;4.93;;;2.80;;
30505;SDS011;17292;51.600;4.994;2023-05-02T02:51:18;5.75;;;3.05;;
30505;SDS011;17292;51.600;4.994;2023-05-02T02:53:59;5.53;;;3.15;;
30505;SDS011;17292;51.600;4.994;2023-05-02T02:56:40;7.55;;;2.90;;
30505;SDS011;17292;51.600;4.994;2023-05-02T02:59:14;4.05;;;2.75;;
30505;SDS011;17292;51.600;4.994;2023-05-02T03:01:42;6.07;;;3.22;;
30505;SDS011;17292;51.600;4.994;2023-05-02T03:04:11;4.63;;;3.13;;
30505;SDS011;17292;51.600;4.994;2023-05-02T03:06:38;4.95;;;3.10;;
30505;SDS011;17292;51.600;4.994;2023-05-02T03:09:04;6.65;;;3.42;;
30505;SDS011;17292;51.600;4.994;2023-05-02T03:11:30;5.03;;;2.63;;
30505;SDS011;17292;51.600;4.994;2023-05-02T03:13:56;3.05;;;2.28;;
30505;SDS011;17292;51.600;4.994;2023-05-02T03:18:58;5.90;;;2.63;;
30505;SDS011;17292;51.600;4.994;2023-05-02T03:21:24;6.78;;;2.80;;
30505;SDS011;17292;51.600;4.994;2023-05-02T03:23:51;11.50;;;3.42;;
30505;SDS011;17292;51.600;4.994;2023-05-02T03:26:17;9.00;;;2.95;;
30505;SDS011;17292;51.600;4.994;2023-05-02T03:28:43;7.60;;;2.65;;
30505;SDS011;17292;51.600;4.994;2023-05-02T03:31:12;6.85;;;2.70;;
30505;SDS011;17292;51.600;4.994;2023-05-02T03:33:39;5.05;;;2.60;;
30505;SDS011;17292;51.600;4.994;2023-05-02T03:36:05;4.05;;;2.47;;
30505;SDS011;17292;51.600;4.994;2023-05-02T03:38:32;4.95;;;2.83;;
30505;SDS011;17292;51.600;4.994;2023-05-02T03:40:58;5.32;;;2.90;;
30505;SDS011;17292;51.600;4.994;2023-05-02T03:43:24;5.22;;;2.78;;
30505;SDS011;17292;51.600;4.994;2023-05-02T03:45:50;6.15;;;2.40;;
30505;SDS011;17292;51.600;4.994;2023-05-02T03:48:16;3.65;;;2.45;;
30505;SDS011;17292;51.600;4.994;2023-05-02T03:50:43;6.38;;;2.72;;
30505;SDS011;17292;51.600;4.994;2023-05-02T03:53:09;4.50;;;2.63;;
30505;SDS011;17292;51.600;4.994;2023-05-02T03:55:39;8.23;;;2.85;;
30505;SDS011;17292;51.600;4.994;2023-05-02T03:58:05;6.60;;;2.85;;
30505;SDS011;17292;51.600;4.994;2023-05-02T04:00:31;5.68;;;2.92;;
30505;SDS011;17292;51.600;4.994;2023-05-02T04:02:59;4.55;;;2.53;;
30505;SDS011;17292;51.600;4.994;2023-05-02T04:05:25;4.43;;;2.70;;
30505;SDS011;17292;51.600;4.994;2023-05-02T04:07:52;6.10;;;2.80;;
30505;SDS011;17292;51.600;4.994;2023-05-02T04:10:18;3.97;;;2.67;;
30505;SDS011;17292;51.600;4.994;2023-05-02T04:12:44;5.07;;;2.70;;
30505;SDS011;17292;51.600;4.994;2023-05-02T04:15:10;4.45;;;2.50;;
30505;SDS011;17292;51.600;4.994;2023-05-02T04:17:36;7.15;;;2.72;;
30505;SDS011;17292;51.600;4.994;2023-05-02T04:20:03;4.97;;;2.60;;
30505;SDS011;17292;51.600;4.994;2023-05-02T04:22:29;6.28;;;2.60;;
30505;SDS011;17292;51.600;4.994;2023-05-02T04:24:56;6.88;;;2.88;;
30505;SDS011;17292;51.600;4.994;2023-05-02T04:27:22;4.78;;;2.53;;
30505;SDS011;17292;51.600;4.994;2023-05-02T04:29:48;4.93;;;2.40;;
30505;SDS011;17292;51.600;4.994;2023-05-02T04:32:14;5.03;;;3.05;;
30505;SDS011;17292;51.600;4.994;2023-05-02T04:34:41;3.17;;;2.17;;
30505;SDS011;17292;51.600;4.994;2023-05-02T04:37:07;4.88;;;2.75;;
30505;SDS011;17292;51.600;4.994;2023-05-02T04:39:33;7.47;;;2.63;;
30505;SDS011;17292;51.600;4.994;2023-05-02T04:41:59;5.70;;;2.75;;
30505;SDS011;17292;51.600;4.994;2023-05-02T04:44:26;4.70;;;2.40;;
30505;SDS011;17292;51.600;4.994;2023-05-02T04:46:52;3.28;;;2.40;;
30505;SDS011;17292;51.600;4.994;2023-05-02T04:49:18;4.35;;;2.63;;
30505;SDS011;17292;51.600;4.994;2023-05-02T04:51:44;2.72;;;2.50;;
30505;SDS011;17292;51.600;4.994;2023-05-02T04:54:11;5.63;;;2.63;;
30505;SDS011;17292;51.600;4.994;2023-05-02T04:56:37;5.03;;;2.63;;
30505;SDS011;17292;51.600;4.994;2023-05-02T04:59:04;4.38;;;2.58;;
30505;SDS011;17292;51.600;4.994;2023-05-02T05:01:31;4.07;;;2.55;;
30505;SDS011;17292;51.600;4.994;2023-05-02T05:03:57;4.18;;;2.30;;
30505;SDS011;17292;51.600;4.994;2023-05-02T05:06:23;3.58;;;2.63;;
30505;SDS011;17292;51.600;4.994;2023-05-02T05:08:50;7.70;;;3.00;;
30505;SDS011;17292;51.600;4.994;2023-05-02T05:11:16;4.35;;;2.85;;
30505;SDS011;17292;51.600;4.994;2023-05-02T05:13:42;6.68;;;2.60;;
30505;SDS011;17292;51.600;4.994;2023-05-02T05:16:08;6.47;;;2.33;;
30505;SDS011;17292;51.600;4.994;2023-05-02T05:18:34;5.45;;;2.40;;
30505;SDS011;17292;51.600;4.994;2023-05-02T05:21:08;4.78;;;2.25;;
30505;SDS011;17292;51.600;4.994;2023-05-02T05:23:35;4.55;;;2.05;;
30505;SDS011;17292;51.600;4.994;2023-05-02T05:26:11;4.15;;;2.72;;
30505;SDS011;17292;51.600;4.994;2023-05-02T05:28:37;9.77;;;2.72;;
30505;SDS011;17292;51.600;4.994;2023-05-02T05:31:07;10.50;;;2.92;;
30505;SDS011;17292;51.600;4.994;2023-05-02T05:33:34;7.70;;;2.80;;
30505;SDS011;17292;51.600;4.994;2023-05-02T05:36:10;9.07;;;2.88;;
30505;SDS011;17292;51.600;4.994;2023-05-02T05:38:37;6.15;;;2.58;;
30505;SDS011;17292;51.600;4.994;2023-05-02T05:41:03;7.90;;;2.80;;
30505;SDS011;17292;51.600;4.994;2023-05-02T05:43:31;10.05;;;2.50;;
30505;SDS011;17292;51.600;4.994;2023-05-02T05:45:58;5.32;;;2.90;;
30505;SDS011;17292;51.600;4.994;2023-05-02T05:48:24;9.07;;;2.40;;
30505;SDS011;17292;51.600;4.994;2023-05-02T05:50:50;4.10;;;2.30;;
30505;SDS011;17292;51.600;4.994;2023-05-02T05:53:17;6.03;;;2.50;;
30505;SDS011;17292;51.600;4.994;2023-05-02T05:55:43;5.80;;;2.35;;
30505;SDS011;17292;51.600;4.994;2023-05-02T05:58:10;6.45;;;2.70;;
30505;SDS011;17292;51.600;4.994;2023-05-02T06:00:36;6.80;;;3.20;;
30505;SDS011;17292;51.600;4.994;2023-05-02T06:03:03;6.07;;;2.75;;
30505;SDS011;17292;51.600;4.994;2023-05-02T06:05:29;5.82;;;2.47;;
30505;SDS011;17292;51.600;4.994;2023-05-02T06:07:55;9.13;;;2.90;;
30505;SDS011;17292;51.600;4.994;2023-05-02T06:10:22;6.72;;;2.55;;
30505;SDS011;17292;51.600;4.994;2023-05-02T06:12:48;9.77;;;2.90;;
30505;SDS011;17292;51.600;4.994;2023-05-02T06:15:15;7.82;;;2.72;;
30505;SDS011;17292;51.600;4.994;2023-05-02T06:17:41;7.53;;;2.28;;
30505;SDS011;17292;51.600;4.994;2023-05-02T06:20:07;12.30;;;2.80;;
30505;SDS011;17292;51.600;4.994;2023-05-02T06:22:34;8.60;;;2.80;;
30505;SDS011;17292;51.600;4.994;2023-05-02T06:25:00;10.68;;;3.17;;
30505;SDS011;17292;51.600;4.994;2023-05-02T06:27:26;5.80;;;2.53;;
30505;SDS011;17292;51.600;4.994;2023-05-02T06:29:52;10.18;;;3.10;;
30505;SDS011;17292;51.600;4.994;2023-05-02T06:32:18;8.57;;;2.58;;
30505;SDS011;17292;51.600;4.994;2023-05-02T06:34:45;12.38;;;2.80;;
30505;SDS011;17292;51.600;4.994;2023-05-02T06:37:11;10.00;;;3.05;;
30505;SDS011;17292;51.600;4.994;2023-05-02T06:39:37;8.45;;;2.85;;
30505;SDS011;17292;51.600;4.994;2023-05-02T06:42:03;8.50;;;3.50;;
30505;SDS011;17292;51.600;4.994;2023-05-02T06:44:29;10.00;;;2.75;;
30505;SDS011;17292;51.600;4.994;2023-05-02T06:46:56;11.93;;;2.97;;
30505;SDS011;17292;51.600;4.994;2023-05-02T06:49:22;8.13;;;2.90;;
30505;SDS011;17292;51.600;4.994;2023-05-02T06:51:48;11.05;;;2.80;;
30505;SDS011;17292;51.600;4.994;2023-05-02T06:54:14;8.18;;;2.80;;
30505;SDS011;17292;51.600;4.994;2023-05-02T06:56:41;9.00;;;3.22;;
30505;SDS011;17292;51.600;4.994;2023-05-02T06:59:07;6.18;;;2.50;;
30505;SDS011;17292;51.600;4.994;2023-05-02T07:01:33;8.73;;;3.20;;
30505;SDS011;17292;51.600;4.994;2023-05-02T07:04:00;7.03;;;2.97;;
30505;SDS011;17292;51.600;4.994;2023-05-02T07:06:29;12.00;;;2.75;;
30505;SDS011;17292;51.600;4.994;2023-05-02T07:08:56;8.23;;;2.45;;
30505;SDS011;17292;51.600;4.994;2023-05-02T07:11:22;7.15;;;3.45;;
30505;SDS011;17292;51.600;4.994;2023-05-02T07:13:49;5.47;;;2.30;;
30505;SDS011;17292;51.600;4.994;2023-05-02T07:16:15;6.35;;;2.72;;
30505;SDS011;17292;51.600;4.994;2023-05-02T07:18:41;12.25;;;2.80;;
30505;SDS011;17292;51.600;4.994;2023-05-02T07:21:09;7.65;;;2.92;;
30505;SDS011;17292;51.600;4.994;2023-05-02T07:23:36;6.80;;;2.75;;
30505;SDS011;17292;51.600;4.994;2023-05-02T07:26:02;8.38;;;2.47;;
30505;SDS011;17292;51.600;4.994;2023-05-02T07:28:29;5.10;;;2.60;;
30505;SDS011;17292;51.600;4.994;2023-05-02T07:30:56;10.07;;;3.15;;
30505;SDS011;17292;51.600;4.994;2023-05-02T07:33:22;7.10;;;3.20;;
30505;SDS011;17292;51.600;4.994;2023-05-02T07:35:48;11.20;;;3.08;;
30505;SDS011;17292;51.600;4.994;2023-05-02T07:38:15;9.68;;;3.00;;
30505;SDS011;17292;51.600;4.994;2023-05-02T07:40:41;7.70;;;3.05;;
30505;SDS011;17292;51.600;4.994;2023-05-02T07:43:07;8.52;;;2.70;;
30505;SDS011;17292;51.600;4.994;2023-05-02T07:45:34;10.18;;;3.00;;
30505;SDS011;17292;51.600;4.994;2023-05-02T07:48:00;8.88;;;3.35;;
30505;SDS011;17292;51.600;4.994;2023-05-02T07:50:27;11.32;;;3.10;;
30505;SDS011;17292;51.600;4.994;2023-05-02T07:52:54;9.18;;;2.85;;
30505;SDS011;17292;51.600;4.994;2023-05-02T07:55:20;11.05;;;2.88;;
30505;SDS011;17292;51.600;4.994;2023-05-02T07:57:47;7.68;;;2.67;;
30505;SDS011;17292;51.600;4.994;2023-05-02T08:00:13;15.55;;;3.13;;
30505;SDS011;17292;51.600;4.994;2023-05-02T08:02:40;6.18;;;2.35;;
30505;SDS011;17292;51.600;4.994;2023-05-02T08:05:06;12.60;;;3.05;;
30505;SDS011;17292;51.600;4.994;2023-05-02T08:07:33;8.20;;;3.10;;
30505;SDS011;17292;51.600;4.994;2023-05-02T08:09:59;8.63;;;2.80;;
30505;SDS011;17292;51.600;4.994;2023-05-02T08:12:26;10.77;;;2.83;;
30505;SDS011;17292;51.600;4.994;2023-05-02T08:14:52;7.20;;;2.45;;
30505;SDS011;17292;51.600;4.994;2023-05-02T08:17:18;16.33;;;3.15;;
30505;SDS011;17292;51.600;4.994;2023-05-02T08:19:45;7.82;;;3.22;;
30505;SDS011;17292;51.600;4.994;2023-05-02T08:22:11;11.23;;;3.22;;
30505;SDS011;17292;51.600;4.994;2023-05-02T08:24:38;12.93;;;2.80;;
30505;SDS011;17292;51.600;4.994;2023-05-02T08:27:04;13.43;;;3.20;;
30505;SDS011;17292;51.600;4.994;2023-05-02T08:29:31;13.60;;;3.08;;
30505;SDS011;17292;51.600;4.994;2023-05-02T08:31:57;8.00;;;2.60;;
30505;SDS011;17292;51.600;4.994;2023-05-02T08:34:23;12.63;;;2.92;;
30505;SDS011;17292;51.600;4.994;2023-05-02T08:36:49;8.57;;;2.67;;
30505;SDS011;17292;51.600;4.994;2023-05-02T08:39:16;6.95;;;2.78;;
30505;SDS011;17292;51.600;4.994;2023-05-02T08:41:42;5.28;;;2.40;;
30505;SDS011;17292;51.600;4.994;2023-05-02T08:44:08;9.48;;;2.60;;
30505;SDS011;17292;51.600;4.994;2023-05-02T08:46:35;12.45;;;2.83;;
30505;SDS011;17292;51.600;4.994;2023-05-02T08:49:01;10.00;;;2.97;;
30505;SDS011;17292;51.600;4.994;2023-05-02T08:51:28;17.42;;;4.05;;
30505;SDS011;17292;51.600;4.994;2023-05-02T08:53:57;9.13;;;2.80;;
30505;SDS011;17292;51.600;4.994;2023-05-02T08:56:23;9.05;;;3.13;;
30505;SDS011;17292;51.600;4.994;2023-05-02T08:58:50;13.25;;;3.17;;
30505;SDS011;17292;51.600;4.994;2023-05-02T09:01:17;11.60;;;3.47;;
30505;SDS011;17292;51.600;4.994;2023-05-02T09:03:44;14.32;;;3.25;;
30505;SDS011;17292;51.600;4.994;2023-05-02T09:08:37;11.65;;;3.58;;
30505;SDS011;17292;51.600;4.994;2023-05-02T09:11:04;17.02;;;3.08;;
30505;SDS011;17292;51.600;4.994;2023-05-02T09:15:59;11.18;;;3.58;;
30505;SDS011;17292;51.600;4.994;2023-05-02T09:18:30;10.02;;;2.78;;
30505;SDS011;17292;51.600;4.994;2023-05-02T09:20:57;11.00;;;3.38;;
30505;SDS011;17292;51.600;4.994;2023-05-02T09:25:59;12.93;;;3.75;;
30505;SDS011;17292;51.600;4.994;2023-05-02T09:28:38;7.13;;;2.78;;
30505;SDS011;17292;51.600;4.994;2023-05-02T09:31:06;12.32;;;3.20;;
30505;SDS011;17292;51.600;4.994;2023-05-02T09:33:33;9.43;;;3.28;;
30505;SDS011;17292;51.600;4.994;2023-05-02T09:35:59;12.32;;;3.97;;
30505;SDS011;17292;51.600;4.994;2023-05-02T09:38:25;8.65;;;2.60;;
30505;SDS011;17292;51.600;4.994;2023-05-02T09:40:52;8.60;;;3.33;;
30505;SDS011;17292;51.600;4.994;2023-05-02T09:43:19;9.55;;;3.08;;
30505;SDS011;17292;51.600;4.994;2023-05-02T09:45:55;9.48;;;3.30;;
30505;SDS011;17292;51.600;4.994;2023-05-02T09:48:22;12.23;;;3.17;;
30505;SDS011;17292;51.600;4.994;2023-05-02T09:50:48;13.45;;;3.30;;
30505;SDS011;17292;51.600;4.994;2023-05-02T09:53:15;10.10;;;3.47;;
30505;SDS011;17292;51.600;4.994;2023-05-02T09:55:41;46.38;;;6.80;;
30505;SDS011;17292;51.600;4.994;2023-05-02T09:58:13;37.20;;;5.65;;
30505;SDS011;17292;51.600;4.994;2023-05-02T10:00:45;19.08;;;4.53;;
30505;SDS011;17292;51.600;4.994;2023-05-02T10:03:14;23.70;;;3.97;;
30505;SDS011;17292;51.600;4.994;2023-05-02T10:05:41;22.80;;;4.20;;
30505;SDS011;17292;51.600;4.994;2023-05-02T10:08:07;20.25;;;5.40;;
30505;SDS011;17292;51.600;4.994;2023-05-02T10:10:47;25.77;;;4.43;;
30505;SDS011;17292;51.600;4.994;2023-05-02T10:13:15;24.50;;;4.25;;
30505;SDS011;17292;51.600;4.994;2023-05-02T10:15:42;19.85;;;3.88;;
30505;SDS011;17292;51.600;4.994;2023-05-02T10:18:13;21.75;;;4.47;;
30505;SDS011;17292;51.600;4.994;2023-05-02T10:20:42;16.45;;;3.92;;
30505;SDS011;17292;51.600;4.994;2023-05-02T10:23:09;18.23;;;3.75;;
30505;SDS011;17292;51.600;4.994;2023-05-02T10:25:35;14.73;;;3.75;;
30505;SDS011;17292;51.600;4.994;2023-05-02T10:28:01;22.25;;;3.95;;
30505;SDS011;17292;51.600;4.994;2023-05-02T10:30:28;19.15;;;3.92;;
30505;SDS011;17292;51.600;4.994;2023-05-02T10:32:55;16.48;;;3.97;;
30505;SDS011;17292;51.600;4.994;2023-05-02T10:35:24;11.68;;;4.32;;
30505;SDS011;17292;51.600;4.994;2023-05-02T10:37:51;18.35;;;4.28;;
30505;SDS011;17292;51.600;4.994;2023-05-02T10:40:17;14.82;;;4.32;;
30505;SDS011;17292;51.600;4.994;2023-05-02T10:42:45;11.15;;;3.80;;
30505;SDS011;17292;51.600;4.994;2023-05-02T10:50:56;16.98;;;4.50;;
30505;SDS011;17292;51.600;4.994;2023-05-02T10:53:43;13.10;;;3.13;;
30505;SDS011;17292;51.600;4.994;2023-05-02T10:56:20;12.07;;;3.45;;
30505;SDS011;17292;51.600;4.994;2023-05-02T10:58:48;14.90;;;3.80;;
30505;SDS011;17292;51.600;4.994;2023-05-02T11:06:22;10.98;;;3.15;;
30505;SDS011;17292;51.600;4.994;2023-05-02T11:08:49;13.25;;;3.38;;
30505;SDS011;17292;51.600;4.994;2023-05-02T11:11:37;11.45;;;3.17;;
30505;SDS011;17292;51.600;4.994;2023-05-02T11:14:07;11.40;;;3.20;;
30505;SDS011;17292;51.600;4.994;2023-05-02T11:19:18;14.95;;;3.63;;
30505;SDS011;17292;51.600;4.994;2023-05-02T11:21:45;27.10;;;3.60;;
30505;SDS011;17292;51.600;4.994;2023-05-02T11:27:25;19.75;;;4.07;;
30505;SDS011;17292;51.600;4.994;2023-05-02T11:29:51;16.17;;;3.17;;
30505;SDS011;17292;51.600;4.994;2023-05-02T11:32:17;18.42;;;4.18;;
30505;SDS011;17292;51.600;4.994;2023-05-02T11:34:43;14.73;;;3.60;;
30505;SDS011;17292;51.600;4.994;2023-05-02T11:37:10;14.35;;;3.17;;
30505;SDS011;17292;51.600;4.994;2023-05-02T11:39:37;13.02;;;3.50;;
30505;SDS011;17292;51.600;4.994;2023-05-02T11:42:04;19.73;;;4.20;;
30505;SDS011;17292;51.600;4.994;2023-05-02T11:44:30;17.17;;;3.50;;
30505;SDS011;17292;51.600;4.994;2023-05-02T11:46:56;14.68;;;3.53;;
30505;SDS011;17292;51.600;4.994;2023-05-02T11:49:23;9.98;;;3.92;;
30505;SDS011;17292;51.600;4.994;2023-05-02T11:51:49;25.70;;;4.30;;
30505;SDS011;17292;51.600;4.994;2023-05-02T11:54:18;10.55;;;3.30;;
30505;SDS011;17292;51.600;4.994;2023-05-02T11:56:48;13.77;;;3.45;;
30505;SDS011;17292;51.600;4.994;2023-05-02T11:59:15;18.45;;;3.90;;
30505;SDS011;17292;51.600;4.994;2023-05-02T12:01:47;14.95;;;3.50;;
30505;SDS011;17292;51.600;4.994;2023-05-02T12:04:14;8.65;;;3.35;;
30505;SDS011;17292;51.600;4.994;2023-05-02T12:06:53;19.20;;;4.97;;
30505;SDS011;17292;51.600;4.994;2023-05-02T12:09:20;12.95;;;3.53;;
30505;SDS011;17292;51.600;4.994;2023-05-02T12:11:52;9.65;;;3.58;;
30505;SDS011;17292;51.600;4.994;2023-05-02T12:14:25;11.65;;;4.03;;
30505;SDS011;17292;51.600;4.994;2023-05-02T12:16:52;18.00;;;4.00;;
30505;SDS011;17292;51.600;4.994;2023-05-02T12:19:18;23.25;;;4.78;;
30505;SDS011;17292;51.600;4.994;2023-05-02T12:21:45;13.27;;;4.07;;
30505;SDS011;17292;51.600;4.994;2023-05-02T12:24:13;16.10;;;4.28;;
30505;SDS011;17292;51.600;4.994;2023-05-02T12:26:39;15.65;;;3.50;;
30505;SDS011;17292;51.600;4.994;2023-05-02T12:29:05;14.85;;;3.25;;
30505;SDS011;17292;51.600;4.994;2023-05-02T12:31:32;14.43;;;3.42;;
30505;SDS011;17292;51.600;4.994;2023-05-02T12:33:59;12.45;;;3.78;;
30505;SDS011;17292;51.600;4.994;2023-05-02T12:36:25;16.27;;;4.00;;
30505;SDS011;17292;51.600;4.994;2023-05-02T12:38:56;16.27;;;4.22;;
30505;SDS011;17292;51.600;4.994;2023-05-02T12:41:36;21.98;;;3.40;;
30505;SDS011;17292;51.600;4.994;2023-05-02T12:44:02;13.35;;;3.95;;
30505;SDS011;17292;51.600;4.994;2023-05-02T12:46:29;14.60;;;3.33;;
30505;SDS011;17292;51.600;4.994;2023-05-02T12:49:07;15.25;;;3.13;;
30505;SDS011;17292;51.600;4.994;2023-05-02T12:51:37;15.48;;;3.60;;
30505;SDS011;17292;51.600;4.994;2023-05-02T12:54:03;16.90;;;3.80;;
30505;SDS011;17292;51.600;4.994;2023-05-02T12:56:29;16.55;;;3.78;;
30505;SDS011;17292;51.600;4.994;2023-05-02T12:58:58;11.85;;;3.72;;
30505;SDS011;17292;51.600;4.994;2023-05-02T13:01:25;12.55;;;3.75;;
30505;SDS011;17292;51.600;4.994;2023-05-02T13:03:52;19.33;;;3.60;;
30505;SDS011;17292;51.600;4.994;2023-05-02T13:06:18;13.70;;;3.88;;
30505;SDS011;17292;51.600;4.994;2023-05-02T13:08:44;14.50;;;3.30;;
30505;SDS011;17292;51.600;4.994;2023-05-02T13:11:11;14.70;;;4.30;;
30505;SDS011;17292;51.600;4.994;2023-05-02T13:13:38;16.13;;;4.35;;
30505;SDS011;17292;51.600;4.994;2023-05-02T13:16:05;18.60;;;3.85;;
30505;SDS011;17292;51.600;4.994;2023-05-02T13:18:31;9.32;;;3.17;;
30505;SDS011;17292;51.600;4.994;2023-05-02T13:21:03;14.05;;;3.67;;
30505;SDS011;17292;51.600;4.994;2023-05-02T13:23:29;16.48;;;3.45;;
30505;SDS011;17292;51.600;4.994;2023-05-02T13:25:56;18.65;;;4.15;;
30505;SDS011;17292;51.600;4.994;2023-05-02T13:28:22;10.48;;;3.58;;
30505;SDS011;17292;51.600;4.994;2023-05-02T13:30:49;6.95;;;3.00;;
30505;SDS011;17292;51.600;4.994;2023-05-02T13:33:15;16.27;;;3.47;;
30505;SDS011;17292;51.600;4.994;2023-05-02T13:35:42;18.30;;;3.75;;
30505;SDS011;17292;51.600;4.994;2023-05-02T13:38:08;12.43;;;3.65;;
30505;SDS011;17292;51.600;4.994;2023-05-02T13:40:34;15.57;;;3.60;;
30505;SDS011;17292;51.600;4.994;2023-05-02T13:43:00;15.40;;;3.40;;
30505;SDS011;17292;51.600;4.994;2023-05-02T13:45:26;12.05;;;3.50;;
30505;SDS011;17292;51.600;4.994;2023-05-02T13:47:52;16.88;;;3.75;;
30505;SDS011;17292;51.600;4.994;2023-05-02T13:50:19;14.57;;;4.10;;
30505;SDS011;17292;51.600;4.994;2023-05-02T13:52:45;16.23;;;3.83;;
30505;SDS011;17292;51.600;4.994;2023-05-02T13:55:11;16.50;;;3.95;;
30505;SDS011;17292;51.600;4.994;2023-05-02T13:57:37;24.98;;;4.15;;
30505;SDS011;17292;51.600;4.994;2023-05-02T14:00:03;18.52;;;4.53;;
30505;SDS011;17292;51.600;4.994;2023-05-02T14:02:32;14.15;;;3.40;;
30505;SDS011;17292;51.600;4.994;2023-05-02T14:04:58;14.27;;;3.90;;
30505;SDS011;17292;51.600;4.994;2023-05-02T14:07:24;19.05;;;3.75;;
30505;SDS011;17292;51.600;4.994;2023-05-02T14:09:50;16.65;;;4.07;;
30505;SDS011;17292;51.600;4.994;2023-05-02T14:12:16;13.43;;;3.63;;
30505;SDS011;17292;51.600;4.994;2023-05-02T14:14:43;11.90;;;4.20;;
30505;SDS011;17292;51.600;4.994;2023-05-02T14:17:09;10.40;;;3.25;;
30505;SDS011;17292;51.600;4.994;2023-05-02T14:19:35;15.60;;;3.88;;
30505;SDS011;17292;51.600;4.994;2023-05-02T14:22:01;18.73;;;3.67;;
30505;SDS011;17292;51.600;4.994;2023-05-02T14:24:27;12.68;;;3.55;;
30505;SDS011;17292;51.600;4.994;2023-05-02T14:26:53;14.38;;;3.15;;
30505;SDS011;17292;51.600;4.994;2023-05-02T14:29:19;11.73;;;3.92;;
30505;SDS011;17292;51.600;4.994;2023-05-02T14:31:46;18.27;;;3.67;;
30505;SDS011;17292;51.600;4.994;2023-05-02T14:34:12;15.45;;;3.55;;
30505;SDS011;17292;51.600;4.994;2023-05-02T14:36:38;15.32;;;3.72;;
30505;SDS011;17292;51.600;4.994;2023-05-02T14:39:04;17.00;;;4.72;;
30505;SDS011;17292;51.600;4.994;2023-05-02T14:41:30;14.07;;;3.83;;
30505;SDS011;17292;51.600;4.994;2023-05-02T14:43:56;14.52;;;3.55;;
30505;SDS011;17292;51.600;4.994;2023-05-02T14:46:22;8.75;;;3.58;;
30505;SDS011;17292;51.600;4.994;2023-05-02T14:48:48;15.23;;;3.65;;
30505;SDS011;17292;51.600;4.994;2023-05-02T14:51:14;16.98;;;3.65;;
30505;SDS011;17292;51.600;4.994;2023-05-02T14:53:41;13.63;;;3.53;;
30505;SDS011;17292;51.600;4.994;2023-05-02T14:56:15;13.90;;;4.40;;
30505;SDS011;17292;51.600;4.994;2023-05-02T14:58:42;14.48;;;3.53;;
30505;SDS011;17292;51.600;4.994;2023-05-02T15:01:15;18.10;;;3.67;;
30505;SDS011;17292;51.600;4.994;2023-05-02T15:03:42;11.73;;;3.75;;
30505;SDS011;17292;51.600;4.994;2023-05-02T15:06:10;14.52;;;3.90;;
30505;SDS011;17292;51.600;4.994;2023-05-02T15:08:36;16.00;;;3.97;;
30505;SDS011;17292;51.600;4.994;2023-05-02T15:11:03;15.88;;;3.80;;
30505;SDS011;17292;51.600;4.994;2023-05-02T15:13:30;11.45;;;3.47;;
30505;SDS011;17292;51.600;4.994;2023-05-02T15:15:56;11.25;;;3.58;;
30505;SDS011;17292;51.600;4.994;2023-05-02T15:18:23;11.60;;;3.58;;
30505;SDS011;17292;51.600;4.994;2023-05-02T15:20:49;11.55;;;3.28;;